createdAt,value
2023-04-28T00:01:34.954Z,82.70
2023-04-28T00:04:06.643Z,82.95
2023-04-28T00:06:37.989Z,82.54
2023-04-28T00:09:11.025Z,82.20
2023-04-28T00:11:44.988Z,82.98
2023-04-28T00:14:16.804Z,83.29
2023-04-28T00:16:49.607Z,82.98
2023-04-28T00:19:21.222Z,82.11
2023-04-28T00:21:52.635Z,82.94
2023-04-28T00:24:24.139Z,83.04
2023-04-28T00:26:56.198Z,82.03
2023-04-28T00:29:28.749Z,83.06
2023-04-28T00:32:00.048Z,83.36
2023-04-28T00:34:37.183Z,83.56
2023-04-28T00:37:08.479Z,82.59
2023-04-28T00:39:41.474Z,83.37
2023-04-28T00:42:15.886Z,83.26
2023-04-28T00:44:47.162Z,84.08
2023-04-28T00:47:19.370Z,83.40
2023-04-28T00:49:50.733Z,83.58
2023-04-28T00:52:22.002Z,83.54
2023-04-28T00:54:53.327Z,83.87
2023-04-28T00:57:24.609Z,83.56
2023-04-28T00:59:55.982Z,83.21
2023-04-28T01:02:29.228Z,83.36
2023-04-28T01:05:01.781Z,83.22
2023-04-28T01:07:34.774Z,82.93
2023-04-28T01:10:07.042Z,83.32
2023-04-28T01:12:38.322Z,82.63
2023-04-28T01:15:17.360Z,83.15
2023-04-28T01:17:48.776Z,83.55
2023-04-28T01:20:20.076Z,82.92
2023-04-28T01:22:51.492Z,83.87
2023-04-28T01:25:22.788Z,83.57
2023-04-28T01:27:54.050Z,84.34
2023-04-28T01:30:25.429Z,83.96
2023-04-28T01:32:56.748Z,84.01
2023-04-28T01:35:28.241Z,83.60
2023-04-28T01:37:59.742Z,84.12
2023-04-28T01:40:31.726Z,84.28
2023-04-28T01:43:03.021Z,83.39
2023-04-28T01:45:34.342Z,83.63
2023-04-28T01:48:05.971Z,83.58
2023-04-28T01:50:37.397Z,84.20
2023-04-28T01:53:08.744Z,83.82
2023-04-28T01:55:40.042Z,83.98
2023-04-28T01:58:11.309Z,84.62
2023-04-28T02:00:42.615Z,83.91
2023-04-28T02:03:14.193Z,84.10
2023-04-28T02:05:45.671Z,84.21
2023-04-28T02:08:16.975Z,84.21
2023-04-28T02:10:48.279Z,83.85
2023-04-28T02:13:19.588Z,84.13
2023-04-28T02:15:50.905Z,84.22
2023-04-28T02:18:22.187Z,83.65
2023-04-28T02:20:53.503Z,84.70
2023-04-28T02:23:24.772Z,84.36
2023-04-28T02:26:03.581Z,85.11
2023-04-28T02:28:34.881Z,84.62
2023-04-28T02:31:07.950Z,84.28
2023-04-28T02:33:39.387Z,84.50
2023-04-28T02:36:11.290Z,84.19
2023-04-28T02:38:42.604Z,85.00
2023-04-28T02:41:15.243Z,83.90
2023-04-28T02:43:46.511Z,84.50
2023-04-28T02:46:17.904Z,84.45
2023-04-28T02:48:49.206Z,84.60
2023-04-28T02:51:20.551Z,84.78
2023-04-28T02:53:51.890Z,84.79
2023-04-28T02:56:23.208Z,84.52
2023-04-28T02:58:54.483Z,85.09
2023-04-28T03:01:26.027Z,84.84
2023-04-28T03:03:57.582Z,85.27
2023-04-28T03:06:29.108Z,84.45
2023-04-28T03:09:00.367Z,85.24
2023-04-28T03:11:31.618Z,84.43
2023-04-28T03:14:02.888Z,85.56
2023-04-28T03:16:34.386Z,85.43
2023-04-28T03:19:05.833Z,85.80
2023-04-28T03:21:37.120Z,85.62
2023-04-28T03:24:08.446Z,85.23
2023-04-28T03:26:39.717Z,85.16
2023-04-28T03:29:11.436Z,84.95
2023-04-28T03:31:42.856Z,84.94
2023-04-28T03:34:14.381Z,85.69
2023-04-28T03:36:45.949Z,85.04
2023-04-28T03:39:17.238Z,85.33
2023-04-28T03:41:48.487Z,85.97
2023-04-28T03:44:19.806Z,85.39
2023-04-28T03:46:51.194Z,85.61
2023-04-28T03:49:22.563Z,86.21
2023-04-28T03:51:53.887Z,85.46
2023-04-28T03:54:25.148Z,85.09
2023-04-28T03:56:56.659Z,84.93
2023-04-28T03:59:28.210Z,86.19
2023-04-28T04:01:59.593Z,85.09
2023-04-28T04:04:31.336Z,86.02
2023-04-28T04:07:03.133Z,85.67
2023-04-28T04:09:34.402Z,85.17
2023-04-28T04:12:06.403Z,85.71
2023-04-28T04:14:37.670Z,85.84
2023-04-28T04:17:09.251Z,86.12
2023-04-28T04:19:41.380Z,85.79
2023-04-28T04:22:12.636Z,85.72
2023-04-28T04:24:44.015Z,85.15
2023-04-28T04:27:15.481Z,85.82
2023-04-28T04:29:47.088Z,85.35
2023-04-28T04:32:18.776Z,84.95
2023-04-28T04:34:50.149Z,85.90
2023-04-28T04:37:21.412Z,85.36
2023-04-28T04:39:53.734Z,85.19
2023-04-28T04:42:25.999Z,84.97
2023-04-28T04:45:00.661Z,85.67
2023-04-28T04:47:43.731Z,84.48
2023-04-28T04:50:24.171Z,84.88
2023-04-28T04:52:57.321Z,84.90
2023-04-28T04:55:30.800Z,85.44
2023-04-28T04:58:02.433Z,85.35
2023-04-28T05:00:34.036Z,85.31
2023-04-28T05:03:06.265Z,84.53
2023-04-28T05:05:37.884Z,85.07
2023-04-28T05:08:09.310Z,85.24
2023-04-28T05:10:40.828Z,85.08
2023-04-28T05:13:12.159Z,84.30
2023-04-28T05:15:43.970Z,84.67
2023-04-28T05:18:15.759Z,83.76
2023-04-28T05:20:47.239Z,84.25
2023-04-28T05:23:18.530Z,83.52
2023-04-28T05:25:49.922Z,83.86
2023-04-28T05:28:22.154Z,83.24
2023-04-28T05:30:53.736Z,83.83
2023-04-28T05:33:25.103Z,83.00
2023-04-28T05:35:56.471Z,83.02
2023-04-28T05:38:27.806Z,83.05
2023-04-28T05:40:59.137Z,83.05
2023-04-28T05:43:30.414Z,82.14
2023-04-28T05:46:01.802Z,82.25
2023-04-28T05:48:33.131Z,81.44
2023-04-28T05:51:04.510Z,81.24
2023-04-28T05:53:35.861Z,81.12
2023-04-28T05:56:07.797Z,80.49
2023-04-28T05:58:39.112Z,80.06
2023-04-28T06:01:11.606Z,79.45
2023-04-28T06:03:43.374Z,77.52
2023-04-28T06:06:15.102Z,75.21
2023-04-28T06:08:47.629Z,73.41
2023-04-28T06:11:22.147Z,72.20
2023-04-28T06:13:53.507Z,70.94
2023-04-28T06:16:24.876Z,70.48
2023-04-28T06:18:56.228Z,70.32
2023-04-28T06:21:28.582Z,70.63
2023-04-28T06:24:00.722Z,71.05
2023-04-28T06:26:32.060Z,71.63
2023-04-28T06:29:03.563Z,71.90
2023-04-28T06:31:34.965Z,71.92
2023-04-28T06:34:06.386Z,72.11
2023-04-28T06:36:37.786Z,71.95
2023-04-28T06:39:09.146Z,71.81
2023-04-28T06:41:41.083Z,71.61
2023-04-28T06:44:13.096Z,71.51
2023-04-28T06:46:46.483Z,70.85
2023-04-28T06:49:18.043Z,71.02
2023-04-28T06:51:49.327Z,70.72
2023-04-28T06:54:20.694Z,70.47
2023-04-28T06:56:52.113Z,69.85
2023-04-28T06:59:23.480Z,69.46
2023-04-28T07:01:54.879Z,69.30
2023-04-28T07:04:27.186Z,68.75
2023-04-28T07:06:58.680Z,69.07
2023-04-28T07:09:31.486Z,68.95
2023-04-28T07:12:04.190Z,68.79
2023-04-28T07:14:35.583Z,68.31
2023-04-28T07:17:06.871Z,68.33
2023-04-28T07:19:38.147Z,67.50
2023-04-28T07:22:09.527Z,67.25
2023-04-28T07:24:40.852Z,67.21
2023-04-28T07:27:12.723Z,66.95
2023-04-28T07:29:44.119Z,66.78
2023-04-28T07:32:15.677Z,66.72
2023-04-28T07:34:47.100Z,66.12
2023-04-28T07:37:18.794Z,65.54
2023-04-28T07:39:50.454Z,65.03
2023-04-28T07:42:22.120Z,64.58
2023-04-28T07:44:53.507Z,64.09
2023-04-28T07:47:25.054Z,63.96
2023-04-28T07:49:56.476Z,63.48
2023-04-28T07:52:27.997Z,63.36
2023-04-28T07:54:59.703Z,62.63
2023-04-28T07:57:31.371Z,62.28
2023-04-28T08:00:03.335Z,61.73
2023-04-28T08:02:34.831Z,61.12
2023-04-28T08:05:08.028Z,60.88
2023-04-28T08:07:39.433Z,60.11
2023-04-28T08:10:11.599Z,60.10
2023-04-28T08:12:45.045Z,59.44
2023-04-28T08:15:17.305Z,59.21
2023-04-28T08:17:50.096Z,58.88
2023-04-28T08:20:24.443Z,58.88
2023-04-28T08:22:56.670Z,58.46
2023-04-28T08:25:28.453Z,58.28
2023-04-28T08:28:00.252Z,58.10
2023-04-28T08:30:32.353Z,57.61
2023-04-28T08:33:04.076Z,57.21
2023-04-28T08:35:35.865Z,56.76
2023-04-28T08:38:08.204Z,55.96
2023-04-28T08:40:40.764Z,55.65
2023-04-28T08:43:13.611Z,55.16
2023-04-28T08:45:45.176Z,54.80
2023-04-28T08:48:21.477Z,54.07
2023-04-28T08:50:54.586Z,54.13
2023-04-28T08:53:26.860Z,53.71
2023-04-28T08:55:58.463Z,53.95
2023-04-28T08:58:29.732Z,53.48
2023-04-28T09:01:04.552Z,53.12
2023-04-28T09:03:36.395Z,53.10
2023-04-28T09:06:08.084Z,52.94
2023-04-28T09:08:39.440Z,52.45
2023-04-28T09:11:13.492Z,52.22
2023-04-28T09:13:44.892Z,51.97
2023-04-28T09:16:16.345Z,51.17
2023-04-28T09:18:58.110Z,50.62
2023-04-28T09:21:29.532Z,51.31
2023-04-28T09:24:00.869Z,51.21
2023-04-28T09:26:48.959Z,49.92
2023-04-28T09:29:20.345Z,50.83
2023-04-28T09:31:51.976Z,50.58
2023-04-28T09:34:23.395Z,50.97
2023-04-28T09:36:54.711Z,50.27
2023-04-28T09:39:30.994Z,50.07
2023-04-28T09:42:03.623Z,50.48
2023-04-28T09:44:34.979Z,49.76
2023-04-28T09:47:22.192Z,48.75
2023-04-28T09:50:01.789Z,49.12
2023-04-28T09:52:34.692Z,49.91
2023-04-28T09:55:08.576Z,49.61
2023-04-28T09:57:40.530Z,49.40
2023-04-28T10:00:12.211Z,48.99
2023-04-28T10:02:44.277Z,48.95
2023-04-28T10:05:16.598Z,48.51
2023-04-28T10:07:48.344Z,48.67
2023-04-28T10:10:20.229Z,48.31
2023-04-28T10:12:51.939Z,48.27
2023-04-28T10:15:23.509Z,48.08
2023-04-28T10:17:56.385Z,47.95
2023-04-28T10:20:29.854Z,47.87
2023-04-28T10:23:47.820Z,46.82
2023-04-28T10:26:20.025Z,48.50
2023-04-28T10:28:52.053Z,48.10
2023-04-28T10:31:23.676Z,48.19
2023-04-28T10:33:56.185Z,48.11
2023-04-28T10:36:47.264Z,46.83
2023-04-28T10:39:18.775Z,47.83
2023-04-28T10:41:50.060Z,48.23
2023-04-28T10:44:30.291Z,47.43
2023-04-28T10:47:07.577Z,47.39
2023-04-28T10:50:02.982Z,46.86
2023-04-28T10:52:40.640Z,47.71
2023-04-28T10:55:39.779Z,46.81
2023-04-28T10:58:17.805Z,47.65
2023-04-28T11:00:50.745Z,47.63
2023-04-28T11:03:40.966Z,46.13
2023-04-28T11:06:29.638Z,45.99
2023-04-28T11:09:14.507Z,46.83
2023-04-28T11:11:56.050Z,46.12
2023-04-28T11:14:31.448Z,46.44
2023-04-28T11:17:11.203Z,45.04
2023-04-28T11:19:51.302Z,46.51
2023-04-28T11:22:23.857Z,46.04
2023-04-28T11:25:00.518Z,45.80
2023-04-28T11:27:33.272Z,45.49
2023-04-28T11:30:19.853Z,44.13
2023-04-28T11:32:51.643Z,45.28
2023-04-28T11:35:23.088Z,44.84
2023-04-28T11:38:06.628Z,44.83
2023-04-28T11:40:37.993Z,45.32
2023-04-28T11:43:09.373Z,44.97
2023-04-28T11:45:46.410Z,44.39
2023-04-28T11:48:22.229Z,44.73
2023-04-28T11:50:54.603Z,44.87
2023-04-28T11:53:44.922Z,44.37
2023-04-28T11:56:16.256Z,45.52
2023-04-28T11:59:01.693Z,45.06
2023-04-28T12:02:08.711Z,45.04
2023-04-28T12:04:43.046Z,46.02
2023-04-28T12:11:03.771Z,46.22
2023-04-28T12:13:26.808Z,45.75
2023-04-28T12:19:12.882Z,46.42
2023-04-28T12:21:44.570Z,46.40
2023-04-28T12:24:21.668Z,45.65
2023-04-28T12:27:46.527Z,44.82
2023-04-28T12:30:24.940Z,45.54
2023-04-28T12:37:15.981Z,45.95
2023-04-28T12:40:04.858Z,46.20
2023-04-28T12:42:43.048Z,46.94
2023-04-28T12:45:38.887Z,46.65
2023-04-28T12:48:42.470Z,46.04
2023-04-28T12:51:14.522Z,46.72
2023-04-28T12:53:46.299Z,46.53
2023-04-28T12:57:27.099Z,45.79
2023-04-28T12:59:58.824Z,46.95
2023-04-28T13:03:17.038Z,47.03
2023-04-28T13:06:12.894Z,47.09
2023-04-28T13:08:47.953Z,46.88
2023-04-28T13:11:22.859Z,47.30
2023-04-28T13:13:56.808Z,47.17
2023-04-28T13:16:34.940Z,47.09
2023-04-28T13:19:38.980Z,46.29
2023-04-28T13:22:10.972Z,47.73
2023-04-28T13:24:43.036Z,47.51
2023-04-28T13:27:14.773Z,47.63
2023-04-28T13:29:58.653Z,47.06
2023-04-28T13:32:30.414Z,47.27
2023-04-28T13:35:04.934Z,47.17
2023-04-28T13:37:42.503Z,47.94
2023-04-28T13:40:21.219Z,48.01
2023-04-28T13:43:10.895Z,48.57
2023-04-28T13:45:42.711Z,48.62
2023-04-28T13:48:16.045Z,48.56
2023-04-28T13:51:13.535Z,47.67
2023-04-28T13:56:52.426Z,47.10
2023-04-28T13:56:57.325Z,47.90
2023-04-28T13:59:24.308Z,48.57
2023-04-28T14:01:58.964Z,49.06
2023-04-28T14:08:06.355Z,48.88
2023-04-28T14:11:10.681Z,48.96
2023-04-28T14:17:06.784Z,49.70
2023-04-28T14:19:58.091Z,49.26
2023-04-28T14:22:30.677Z,49.40
2023-04-28T14:25:02.346Z,49.24
2023-04-28T14:27:34.055Z,49.19
2023-04-28T14:30:19.839Z,48.92
2023-04-28T14:32:57.373Z,49.14
2023-04-28T14:38:58.881Z,49.54
2023-04-28T14:41:55.424Z,49.20
2023-04-28T14:47:41.273Z,49.85
2023-04-28T14:50:13.985Z,49.87
2023-04-28T14:52:45.615Z,49.97
2023-04-28T14:55:16.933Z,49.97
2023-04-28T14:57:48.291Z,49.88
2023-04-28T15:00:19.783Z,49.95
2023-04-28T15:02:51.310Z,50.16
2023-04-28T15:05:22.764Z,50.07
2023-04-28T15:07:54.034Z,49.55
2023-04-28T15:10:30.720Z,50.17
2023-04-28T15:13:01.960Z,50.36
2023-04-28T15:15:34.945Z,50.58
2023-04-28T15:18:06.513Z,50.66
2023-04-28T15:20:38.218Z,50.35
2023-04-28T15:23:10.591Z,50.72
2023-04-28T15:25:41.847Z,50.62
2023-04-28T15:28:13.132Z,51.22
2023-04-28T15:30:44.604Z,51.19
2023-04-28T15:33:18.834Z,51.05
2023-04-28T15:35:50.209Z,51.49
2023-04-28T15:38:21.905Z,51.24
2023-04-28T15:40:53.336Z,51.48
2023-04-28T15:43:25.086Z,51.21
2023-04-28T15:45:56.836Z,51.73
2023-04-28T15:48:28.446Z,52.10
2023-04-28T15:50:59.836Z,52.72
2023-04-28T15:53:31.312Z,53.27
2023-04-28T15:56:03.979Z,53.65
2023-04-28T15:58:35.378Z,54.50
2023-04-28T16:01:06.753Z,55.06
2023-04-28T16:03:39.185Z,56.53
2023-04-28T16:06:11.016Z,57.62
2023-04-28T16:08:42.716Z,59.21
2023-04-28T16:11:17.719Z,59.93
2023-04-28T16:13:49.837Z,61.37
2023-04-28T16:16:21.152Z,62.69
2023-04-28T16:18:52.822Z,63.60
2023-04-28T16:21:24.985Z,64.58
2023-04-28T16:23:56.340Z,65.76
2023-04-28T16:26:27.601Z,67.25
2023-04-28T16:28:58.928Z,67.69
2023-04-28T16:31:31.241Z,68.86
2023-04-28T16:34:02.617Z,69.49
2023-04-28T16:36:34.055Z,70.27
2023-04-28T16:39:05.502Z,70.95
2023-04-28T16:41:37.561Z,71.54
2023-04-28T16:44:08.901Z,72.01
2023-04-28T16:46:41.344Z,72.00
2023-04-28T16:49:12.906Z,72.64
2023-04-28T16:52:04.560Z,72.53
2023-04-28T16:54:35.841Z,73.50
2023-04-28T16:57:07.603Z,74.00
2023-04-28T16:59:38.910Z,74.42
2023-04-28T17:02:10.193Z,74.62
2023-04-28T17:04:41.852Z,75.06
2023-04-28T17:07:13.295Z,75.98
2023-04-28T17:09:44.573Z,76.52
2023-04-28T17:12:16.660Z,77.34
2023-04-28T17:14:47.995Z,78.13
2023-04-28T17:17:19.253Z,79.27
2023-04-28T17:19:50.716Z,80.44
2023-04-28T17:22:22.439Z,81.07
2023-04-28T17:24:53.806Z,82.14
2023-04-28T17:27:25.309Z,83.08
2023-04-28T17:29:56.686Z,83.87
2023-04-28T17:32:30.731Z,84.32
2023-04-28T17:35:02.317Z,85.21
2023-04-28T17:37:34.510Z,85.78
2023-04-28T17:40:06.374Z,86.13
2023-04-28T17:42:37.869Z,86.81
2023-04-28T17:45:09.949Z,87.05
2023-04-28T17:47:41.313Z,87.46
2023-04-28T17:50:12.586Z,87.79
2023-04-28T17:52:44.266Z,88.54
2023-04-28T17:55:15.668Z,88.54
2023-04-28T17:57:46.935Z,89.04
2023-04-28T18:00:18.277Z,89.15
2023-04-28T18:02:49.625Z,89.40
2023-04-28T18:05:23.953Z,89.77
2023-04-28T18:07:55.894Z,90.31
2023-04-28T18:10:28.079Z,90.73
2023-04-28T18:12:59.423Z,90.58
2023-04-28T18:15:30.682Z,90.75
2023-04-28T18:18:02.067Z,90.92
2023-04-28T18:20:33.385Z,91.25
2023-04-28T18:23:05.926Z,91.47
2023-04-28T18:25:37.665Z,91.49
2023-04-28T18:28:10.312Z,91.96
2023-04-28T18:30:41.562Z,91.80
2023-04-28T18:33:13.437Z,91.45
2023-04-28T18:35:46.426Z,92.07
2023-04-28T18:38:18.255Z,92.59
2023-04-28T18:40:49.514Z,92.53
2023-04-28T18:43:21.616Z,92.98
2023-04-28T18:45:53.295Z,93.10
2023-04-28T18:48:25.602Z,93.18
2023-04-28T18:50:57.287Z,93.28
2023-04-28T18:53:29.070Z,93.66
2023-04-28T18:56:00.377Z,93.97
2023-04-28T18:58:32.030Z,93.42
2023-04-28T19:01:03.925Z,93.98
2023-04-28T19:03:35.368Z,94.08
2023-04-28T19:06:06.755Z,94.04
2023-04-28T19:08:42.572Z,93.76
2023-04-28T19:11:13.903Z,94.11
2023-04-28T19:13:45.336Z,94.20
2023-04-28T19:16:17.867Z,94.49
2023-04-28T19:18:49.254Z,94.85
2023-04-28T19:21:20.540Z,94.77
2023-04-28T19:23:51.829Z,95.26
2023-04-28T19:26:23.239Z,95.43
2023-04-28T19:28:54.585Z,97.89
2023-04-28T19:31:25.907Z,98.58
2023-04-28T19:33:57.714Z,98.99
2023-04-28T19:36:29.011Z,99.44
2023-04-28T19:39:00.281Z,99.87
2023-04-28T19:41:31.732Z,99.97
2023-04-28T19:44:03.314Z,100.00
2023-04-28T19:46:35.724Z,100.00
2023-04-28T19:49:07.422Z,100.00
2023-04-28T19:51:39.460Z,100.00
2023-04-28T19:54:10.774Z,100.00
2023-04-28T19:56:42.036Z,100.00
2023-04-28T19:59:13.302Z,100.00
2023-04-28T20:01:44.747Z,100.00
2023-04-28T20:04:16.736Z,100.00
2023-04-28T20:06:48.119Z,100.00
2023-04-28T20:09:19.476Z,100.00
2023-04-28T20:11:50.873Z,100.00
2023-04-28T20:14:22.318Z,100.00
2023-04-28T20:16:53.588Z,100.00
2023-04-28T20:19:25.364Z,100.00
2023-04-28T20:21:56.846Z,100.00
2023-04-28T20:24:28.337Z,100.00
2023-04-28T20:26:59.639Z,100.00
2023-04-28T20:29:34.280Z,100.00
2023-04-28T20:32:12.493Z,100.00
2023-04-28T20:34:44.882Z,100.00
2023-04-28T20:37:16.575Z,100.00
2023-04-28T20:39:48.716Z,100.00
2023-04-28T20:42:20.139Z,100.00
2023-04-28T20:44:51.911Z,100.00
2023-04-28T20:47:23.334Z,100.00
2023-04-28T20:49:54.630Z,100.00
2023-04-28T20:52:25.901Z,100.00
2023-04-28T20:54:58.745Z,100.00
2023-04-28T20:57:30.294Z,100.00
2023-04-28T21:00:01.566Z,100.00
2023-04-28T21:02:34.020Z,100.00
2023-04-28T21:05:05.680Z,100.00
2023-04-28T21:07:36.965Z,100.00
2023-04-28T21:10:08.846Z,100.00
2023-04-28T21:12:41.292Z,100.00
2023-04-28T21:15:13.331Z,100.00
2023-04-28T21:17:44.637Z,100.00
2023-04-28T21:20:16.090Z,100.00
2023-04-28T21:22:47.460Z,100.00
2023-04-28T21:25:18.890Z,100.00
2023-04-28T21:27:50.443Z,100.00
2023-04-28T21:30:22.109Z,100.00
2023-04-28T21:32:53.703Z,100.00
2023-04-28T21:35:25.206Z,100.00
2023-04-28T21:37:56.530Z,100.00
2023-04-28T21:40:28.779Z,100.00
2023-04-28T21:43:00.055Z,100.00
2023-04-28T21:45:31.487Z,100.00
2023-04-28T21:48:02.884Z,100.00
2023-04-28T21:50:35.998Z,100.00
2023-04-28T21:53:07.351Z,100.00
2023-04-28T21:55:39.662Z,100.00
2023-04-28T21:58:11.501Z,100.00
2023-04-28T22:00:44.896Z,100.00
2023-04-28T22:03:16.628Z,100.00
2023-04-28T22:05:48.406Z,100.00
2023-04-28T22:08:19.862Z,100.00
2023-04-28T22:10:51.447Z,100.00
2023-04-28T22:13:22.913Z,100.00
2023-04-28T22:15:55.988Z,100.00
2023-04-28T22:18:28.350Z,100.00
2023-04-28T22:21:01.013Z,100.00
2023-04-28T22:23:32.564Z,100.00
2023-04-28T22:26:04.535Z,100.00
2023-04-28T22:28:36.012Z,100.00
2023-04-28T22:31:07.368Z,100.00
2023-04-28T22:33:39.000Z,100.00
2023-04-28T22:36:10.389Z,100.00
2023-04-28T22:38:41.738Z,100.00
2023-04-28T22:41:13.300Z,100.00
2023-04-28T22:43:44.691Z,100.00
2023-04-28T22:46:16.065Z,100.00
2023-04-28T22:48:47.383Z,100.00
2023-04-28T22:51:18.890Z,100.00
2023-04-28T22:53:50.652Z,100.00
2023-04-28T22:56:22.166Z,100.00
2023-04-28T22:58:53.519Z,100.00
2023-04-28T23:01:24.905Z,100.00
2023-04-28T23:03:56.302Z,100.00
2023-04-28T23:06:32.027Z,100.00
2023-04-28T23:09:03.588Z,100.00
2023-04-28T23:11:34.880Z,100.00
2023-04-28T23:14:06.252Z,100.00
2023-04-28T23:16:37.797Z,100.00
2023-04-28T23:19:09.096Z,100.00
2023-04-28T23:21:40.429Z,100.00
2023-04-28T23:24:11.679Z,100.00
2023-04-28T23:26:42.960Z,100.00
2023-04-28T23:29:14.380Z,100.00
2023-04-28T23:31:51.992Z,100.00
2023-04-28T23:34:24.128Z,100.00
2023-04-28T23:36:55.533Z,100.00
2023-04-28T23:39:29.783Z,100.00
2023-04-28T23:42:02.259Z,100.00
2023-04-28T23:44:33.549Z,100.00
2023-04-28T23:47:04.841Z,100.00
2023-04-28T23:49:36.235Z,100.00
2023-04-28T23:52:07.874Z,100.00
2023-04-28T23:54:39.157Z,100.00
2023-04-28T23:57:10.592Z,100.00
2023-04-28T23:59:42.400Z,100.00
